createdAt,value
2019-05-25T00:01:57.660Z,1.30
2019-05-25T00:04:30.540Z,1.33
2019-05-25T00:07:01.241Z,1.57
2019-05-25T00:09:32.021Z,1.40
2019-05-25T00:12:02.804Z,1.23
2019-05-25T00:14:33.492Z,1.30
2019-05-25T00:17:05.149Z,1.30
2019-05-25T00:19:35.963Z,1.03
2019-05-25T00:22:07.693Z,1.17
2019-05-25T00:24:38.487Z,1.33
2019-05-25T00:27:09.245Z,1.10
2019-05-25T00:29:39.971Z,1.10
2019-05-25T00:32:10.636Z,1.20
2019-05-25T00:34:41.589Z,1.20
2019-05-25T00:37:12.581Z,1.67
2019-05-25T00:39:43.408Z,1.40
2019-05-25T00:42:14.096Z,1.27
2019-05-25T00:44:44.765Z,1.30
2019-05-25T00:47:15.484Z,0.93
2019-05-25T00:49:46.223Z,1.40
2019-05-25T00:52:17.081Z,1.20
2019-05-25T00:54:50.521Z,1.37
2019-05-25T00:57:21.210Z,1.53
2019-05-25T00:59:53.801Z,1.20
2019-05-25T01:02:24.591Z,1.37
2019-05-25T01:04:55.428Z,1.30
2019-05-25T01:07:26.074Z,1.20
2019-05-25T01:09:56.859Z,1.03
2019-05-25T01:12:27.575Z,1.20
2019-05-25T01:14:58.380Z,1.43
2019-05-25T01:17:29.087Z,1.00
2019-05-25T01:19:59.988Z,1.10
2019-05-25T01:22:30.827Z,1.03
2019-05-25T01:25:01.728Z,1.13
2019-05-25T01:27:32.593Z,1.40
2019-05-25T01:30:03.618Z,1.37
2019-05-25T01:32:35.779Z,1.30
2019-05-25T01:35:08.633Z,1.57
2019-05-25T01:37:39.574Z,1.17
2019-05-25T01:40:11.561Z,1.30
2019-05-25T01:42:42.215Z,1.60
2019-05-25T01:45:13.080Z,1.12
2019-05-25T01:47:43.903Z,1.90
2019-05-25T01:50:14.921Z,1.37
2019-05-25T01:52:45.689Z,1.20
2019-05-25T01:55:16.532Z,1.27
2019-05-25T01:57:47.356Z,1.30
2019-05-25T02:00:19.783Z,1.45
2019-05-25T02:02:50.509Z,1.43
2019-05-25T02:05:21.213Z,2.03
2019-05-25T02:07:52.005Z,1.20
2019-05-25T02:10:22.778Z,1.30
2019-05-25T02:12:53.408Z,1.50
2019-05-25T02:15:24.215Z,1.50
2019-05-25T02:17:54.854Z,1.13
2019-05-25T02:20:25.542Z,1.47
2019-05-25T02:22:56.305Z,1.50
2019-05-25T02:25:27.105Z,1.20
2019-05-25T02:27:58.001Z,1.67
2019-05-25T02:30:28.966Z,1.40
2019-05-25T02:32:59.651Z,1.40
2019-05-25T02:35:30.419Z,1.70
2019-05-25T02:38:01.043Z,1.43
2019-05-25T02:40:31.728Z,1.43
2019-05-25T02:43:02.469Z,1.37
2019-05-25T02:45:33.263Z,1.47
2019-05-25T02:48:04.121Z,2.17
2019-05-25T02:50:34.827Z,1.65
2019-05-25T02:53:05.590Z,1.57
2019-05-25T02:55:36.389Z,1.10
2019-05-25T02:58:07.188Z,1.30
2019-05-25T03:00:37.931Z,1.30
2019-05-25T03:03:08.777Z,1.60
2019-05-25T03:05:39.533Z,1.30
2019-05-25T03:08:10.281Z,1.47
2019-05-25T03:10:41.365Z,1.57
2019-05-25T03:13:12.205Z,1.90
2019-05-25T03:15:42.944Z,1.50
2019-05-25T03:18:13.702Z,1.40
2019-05-25T03:20:44.438Z,1.50
2019-05-25T03:23:15.295Z,1.50
2019-05-25T03:25:49.822Z,1.43
2019-05-25T03:28:20.085Z,1.32
2019-05-25T03:30:50.844Z,1.22
2019-05-25T03:33:21.586Z,1.22
2019-05-25T03:35:52.387Z,1.40
2019-05-25T03:38:23.129Z,1.57
2019-05-25T03:40:53.921Z,1.30
2019-05-25T03:43:24.747Z,1.67
2019-05-25T03:45:55.455Z,1.67
2019-05-25T03:48:26.116Z,1.77
2019-05-25T03:50:58.469Z,1.60
2019-05-25T03:53:29.164Z,1.80
2019-05-25T03:56:05.762Z,2.10
2019-05-25T03:58:34.458Z,1.60
2019-05-25T04:01:05.199Z,1.73
2019-05-25T04:03:35.922Z,1.67
2019-05-25T04:06:06.835Z,1.87
2019-05-25T04:08:37.592Z,1.50
2019-05-25T04:11:08.345Z,1.60
2019-05-25T04:13:39.049Z,1.50
2019-05-25T04:16:09.804Z,1.60
2019-05-25T04:18:40.476Z,1.40
2019-05-25T04:21:11.245Z,1.67
2019-05-25T04:23:41.933Z,1.60
2019-05-25T04:26:22.172Z,1.50
2019-05-25T04:28:45.060Z,1.47
2019-05-25T04:31:15.746Z,1.42
2019-05-25T04:33:46.407Z,1.70
2019-05-25T04:36:17.253Z,1.40
2019-05-25T04:38:47.947Z,1.67
2019-05-25T04:41:18.641Z,1.83
2019-05-25T04:43:49.314Z,2.13
2019-05-25T04:46:21.636Z,1.50
2019-05-25T04:48:52.716Z,2.00
2019-05-25T04:51:23.336Z,1.70
2019-05-25T04:53:54.073Z,1.72
2019-05-25T04:56:38.198Z,1.50
2019-05-25T04:58:57.398Z,2.00
2019-05-25T05:01:28.172Z,1.90
2019-05-25T05:03:58.951Z,1.67
2019-05-25T05:06:29.912Z,1.27
2019-05-25T05:09:00.652Z,1.63
2019-05-25T05:11:33.156Z,1.72
2019-05-25T05:14:04.003Z,1.50
2019-05-25T05:16:34.743Z,2.22
2019-05-25T05:19:05.695Z,1.90
2019-05-25T05:21:36.387Z,1.90
2019-05-25T05:24:07.114Z,1.93
2019-05-25T05:26:37.887Z,1.50
2019-05-25T05:29:08.772Z,1.63
2019-05-25T05:31:39.425Z,1.73
2019-05-25T05:34:10.264Z,1.47
2019-05-25T05:36:41.046Z,1.45
2019-05-25T05:39:11.829Z,1.60
2019-05-25T05:41:42.626Z,1.60
2019-05-25T05:44:14.596Z,1.67
2019-05-25T05:46:47.272Z,1.73
2019-05-25T05:49:18.130Z,1.80
2019-05-25T05:51:50.465Z,1.73
2019-05-25T05:54:21.730Z,1.30
2019-05-25T05:56:52.352Z,1.30
2019-05-25T05:59:23.231Z,1.53
2019-05-25T06:01:53.939Z,1.40
2019-05-25T06:04:24.617Z,2.23
2019-05-25T06:06:55.501Z,1.03
2019-05-25T06:09:26.189Z,1.83
2019-05-25T06:11:56.915Z,1.03
2019-05-25T06:14:27.600Z,1.37
2019-05-25T06:16:58.490Z,1.27
2019-05-25T06:19:29.163Z,1.57
2019-05-25T06:21:59.927Z,1.60
2019-05-25T06:24:31.146Z,1.63
2019-05-25T06:27:01.902Z,1.50
2019-05-25T06:29:32.637Z,1.20
2019-05-25T06:32:03.424Z,1.30
2019-05-25T06:34:34.328Z,1.30
2019-05-25T06:37:05.089Z,1.07
2019-05-25T06:39:35.871Z,1.27
2019-05-25T06:42:06.806Z,1.40
2019-05-25T06:44:37.499Z,0.90
2019-05-25T06:47:08.268Z,1.17
2019-05-25T06:49:39.024Z,1.07
2019-05-25T06:52:09.757Z,1.17
2019-05-25T06:54:40.800Z,1.40
2019-05-25T06:57:11.533Z,1.40
2019-05-25T06:59:42.405Z,1.03
2019-05-25T07:02:13.216Z,0.93
2019-05-25T07:04:43.973Z,1.20
2019-05-25T07:07:14.657Z,1.43
2019-05-25T07:09:45.428Z,0.90
2019-05-25T07:12:16.170Z,1.00
2019-05-25T07:14:47.031Z,0.97
2019-05-25T07:17:18.798Z,0.98
2019-05-25T07:19:49.580Z,1.00
2019-05-25T07:22:20.214Z,1.00
2019-05-25T07:24:50.982Z,1.07
2019-05-25T07:27:22.002Z,1.20
2019-05-25T07:29:52.807Z,1.20
2019-05-25T07:32:24.543Z,0.93
2019-05-25T07:34:55.330Z,0.70
2019-05-25T07:37:26.895Z,1.00
2019-05-25T07:39:57.861Z,1.10
2019-05-25T07:42:28.513Z,1.03
2019-05-25T07:44:59.289Z,0.97
2019-05-25T07:47:30.021Z,0.80
2019-05-25T07:50:00.801Z,0.90
2019-05-25T07:52:31.528Z,1.00
2019-05-25T07:55:08.248Z,0.90
2019-05-25T07:57:46.995Z,0.80
2019-05-25T08:00:17.949Z,0.73
2019-05-25T08:02:48.588Z,0.93
2019-05-25T08:05:19.401Z,0.90
2019-05-25T08:07:50.145Z,1.27
2019-05-25T08:10:21.164Z,0.73
2019-05-25T08:12:51.820Z,1.23
2019-05-25T08:15:22.597Z,0.60
2019-05-25T08:17:53.353Z,0.70
2019-05-25T08:20:24.028Z,0.80
2019-05-25T08:22:54.699Z,0.70
2019-05-25T08:25:25.727Z,0.90
2019-05-25T08:27:56.757Z,0.90
2019-05-25T08:30:27.721Z,0.53
2019-05-25T08:32:58.523Z,0.60
2019-05-25T08:35:29.337Z,0.90
2019-05-25T08:38:00.148Z,0.63
2019-05-25T08:40:30.916Z,1.13
2019-05-25T08:43:01.713Z,0.70
2019-05-25T08:45:32.540Z,0.83
2019-05-25T08:48:03.281Z,0.50
2019-05-25T08:50:38.188Z,0.60
2019-05-25T08:53:06.432Z,0.97
2019-05-25T08:55:37.502Z,0.80
2019-05-25T08:58:08.812Z,0.70
2019-05-25T09:00:39.446Z,0.80
2019-05-25T09:03:10.270Z,0.65
2019-05-25T09:05:40.994Z,0.70
2019-05-25T09:08:11.809Z,0.65
2019-05-25T09:10:42.661Z,0.70
2019-05-25T09:13:13.436Z,0.37
2019-05-25T09:15:45.556Z,0.50
2019-05-25T09:18:16.272Z,0.70
2019-05-25T09:20:47.399Z,0.37
2019-05-25T09:23:18.283Z,0.73
2019-05-25T09:25:48.963Z,0.80
2019-05-25T09:28:19.606Z,0.45
2019-05-25T09:30:50.363Z,0.70
2019-05-25T09:33:20.990Z,0.60
2019-05-25T09:35:52.572Z,0.50
2019-05-25T09:38:23.241Z,0.63
2019-05-25T09:40:53.906Z,0.43
2019-05-25T09:43:24.789Z,0.80
2019-05-25T09:45:55.483Z,0.83
2019-05-25T09:48:26.125Z,0.40
2019-05-25T09:50:56.949Z,0.60
2019-05-25T09:53:27.757Z,0.80
2019-05-25T09:55:58.532Z,0.50
2019-05-25T09:58:29.182Z,0.63
2019-05-25T10:00:59.958Z,0.60
2019-05-25T10:03:30.770Z,0.40
2019-05-25T10:06:10.759Z,0.60
2019-05-25T10:08:33.985Z,0.53
2019-05-25T10:11:04.858Z,0.80
2019-05-25T10:13:35.577Z,0.50
2019-05-25T10:16:06.348Z,0.53
2019-05-25T10:18:37.020Z,0.60
2019-05-25T10:21:07.809Z,0.97
2019-05-25T10:23:38.501Z,0.90
2019-05-25T10:26:09.192Z,0.87
2019-05-25T10:28:39.922Z,0.70
2019-05-25T10:31:10.653Z,0.67
2019-05-25T10:33:41.400Z,1.00
2019-05-25T10:36:12.339Z,0.97
2019-05-25T10:38:43.034Z,0.90
2019-05-25T10:41:17.849Z,1.00
2019-05-25T10:43:48.741Z,0.90
2019-05-25T10:46:19.532Z,0.50
2019-05-25T10:48:50.323Z,1.27
2019-05-25T10:51:21.011Z,0.90
2019-05-25T10:53:51.706Z,0.90
2019-05-25T10:56:22.475Z,0.90
2019-05-25T10:58:53.272Z,0.93
2019-05-25T11:01:24.186Z,0.77
2019-05-25T11:03:57.874Z,0.93
2019-05-25T11:06:28.565Z,1.27
2019-05-25T11:08:59.324Z,0.73
2019-05-25T11:11:30.059Z,1.10
2019-05-25T11:14:00.690Z,0.67
2019-05-25T11:16:31.605Z,1.03
2019-05-25T11:19:02.414Z,0.97
2019-05-25T11:21:33.276Z,0.87
2019-05-25T11:24:05.018Z,1.10
2019-05-25T11:26:35.744Z,0.80
2019-05-25T11:29:06.501Z,0.80
2019-05-25T11:31:37.440Z,1.40
2019-05-25T11:34:08.283Z,0.90
2019-05-25T11:36:39.052Z,1.23
2019-05-25T11:39:09.716Z,1.50
2019-05-25T11:41:40.517Z,1.00
2019-05-25T11:44:11.229Z,0.90
2019-05-25T11:46:42.211Z,0.80
2019-05-25T11:49:22.235Z,0.80
2019-05-25T11:51:45.382Z,0.77
2019-05-25T11:54:16.326Z,1.00
2019-05-25T11:56:47.076Z,1.00
2019-05-25T11:59:17.894Z,1.27
2019-05-25T12:01:48.678Z,1.17
2019-05-25T12:04:19.545Z,1.10
2019-05-25T12:06:50.202Z,0.75
2019-05-25T12:09:20.983Z,0.75
2019-05-25T12:11:51.638Z,1.47
2019-05-25T12:14:22.463Z,1.47
2019-05-25T12:16:53.129Z,1.00
2019-05-25T12:19:24.033Z,1.30
2019-05-25T12:21:55.166Z,0.93
2019-05-25T12:24:26.052Z,0.70
2019-05-25T12:26:56.764Z,1.10
2019-05-25T12:29:27.513Z,0.93
2019-05-25T12:32:04.202Z,0.87
2019-05-25T12:34:30.636Z,1.20
2019-05-25T12:37:01.320Z,1.20
2019-05-25T12:39:32.091Z,0.90
2019-05-25T12:42:03.122Z,1.02
2019-05-25T12:44:34.622Z,1.00
2019-05-25T12:47:05.589Z,1.20
2019-05-25T12:49:50.073Z,1.10
2019-05-25T12:52:09.851Z,1.20
2019-05-25T12:54:40.744Z,1.17
2019-05-25T12:57:11.556Z,0.93
2019-05-25T12:59:42.506Z,1.12
2019-05-25T13:02:13.266Z,1.17
2019-05-25T13:04:43.952Z,1.03
2019-05-25T13:07:14.734Z,1.13
2019-05-25T13:09:45.430Z,1.20
2019-05-25T13:12:16.073Z,0.85
2019-05-25T13:14:46.809Z,1.27
2019-05-25T13:17:17.515Z,1.23
2019-05-25T13:19:49.321Z,1.13
2019-05-25T13:22:20.059Z,1.00
2019-05-25T13:24:50.838Z,0.73
2019-05-25T13:27:21.570Z,0.80
2019-05-25T13:29:52.295Z,0.90
2019-05-25T13:32:23.046Z,1.00
2019-05-25T13:34:53.830Z,0.90
2019-05-25T13:37:24.707Z,0.90
2019-05-25T13:39:55.536Z,0.90
2019-05-25T13:42:26.365Z,1.00
2019-05-25T13:44:57.227Z,0.90
2019-05-25T13:47:28.235Z,1.10
2019-05-25T13:49:59.053Z,0.75
2019-05-25T13:52:29.793Z,0.67
2019-05-25T13:55:00.476Z,1.30
2019-05-25T13:57:31.293Z,0.73
2019-05-25T14:00:02.339Z,0.50
2019-05-25T14:02:33.774Z,0.90
2019-05-25T14:05:06.110Z,0.70
2019-05-25T14:07:37.428Z,0.87
2019-05-25T14:10:09.518Z,0.80
2019-05-25T14:12:40.223Z,0.97
2019-05-25T14:15:12.240Z,0.78
2019-05-25T14:17:43.214Z,0.60
2019-05-25T14:20:14.208Z,0.95
2019-05-25T14:22:44.925Z,0.87
2019-05-25T14:25:15.786Z,0.90
2019-05-25T14:27:46.660Z,0.70
2019-05-25T14:30:18.542Z,0.80
2019-05-25T14:32:49.286Z,0.80
2019-05-25T14:35:20.159Z,0.70
2019-05-25T14:37:50.935Z,1.10
2019-05-25T14:40:21.719Z,0.85
2019-05-25T14:42:52.464Z,1.00
2019-05-25T14:45:23.217Z,0.93
2019-05-25T14:47:53.932Z,0.77
2019-05-25T14:50:24.608Z,0.63
2019-05-25T14:52:55.325Z,1.17
2019-05-25T14:55:26.033Z,0.83
2019-05-25T14:57:56.793Z,0.70
2019-05-25T15:00:27.725Z,0.90
2019-05-25T15:02:58.617Z,1.07
2019-05-25T15:05:29.326Z,0.93
2019-05-25T15:08:00.104Z,0.73
2019-05-25T15:10:30.915Z,0.90
2019-05-25T15:13:01.691Z,0.60
2019-05-25T15:15:32.469Z,0.67
2019-05-25T15:18:03.308Z,0.70
2019-05-25T15:20:33.981Z,1.23
2019-05-25T15:23:05.583Z,1.05
2019-05-25T15:25:36.278Z,0.90
2019-05-25T15:28:07.024Z,0.63
2019-05-25T15:30:37.949Z,0.90
2019-05-25T15:33:08.786Z,0.80
2019-05-25T15:35:39.446Z,0.77
2019-05-25T15:38:10.240Z,0.78
2019-05-25T15:40:40.987Z,0.97
2019-05-25T15:43:11.710Z,0.90
2019-05-25T15:45:42.471Z,1.00
2019-05-25T15:48:13.166Z,0.90
2019-05-25T15:50:43.897Z,1.20
2019-05-25T15:53:14.618Z,1.07
2019-05-25T15:55:45.381Z,1.00
2019-05-25T15:58:16.050Z,0.80
2019-05-25T16:00:48.399Z,1.07
2019-05-25T16:03:20.260Z,1.20
2019-05-25T16:05:52.341Z,1.30
2019-05-25T16:08:23.288Z,1.10
2019-05-25T16:10:54.031Z,1.00
2019-05-25T16:13:24.838Z,1.23
2019-05-25T16:15:55.551Z,0.80
2019-05-25T16:18:26.224Z,1.23
2019-05-25T16:20:56.958Z,0.93
2019-05-25T16:23:27.658Z,0.93
2019-05-25T16:25:58.306Z,0.80
2019-05-25T16:28:29.027Z,0.70
2019-05-25T16:30:59.792Z,0.90
2019-05-25T16:33:30.575Z,0.70
2019-05-25T16:36:01.305Z,1.03
2019-05-25T16:38:32.143Z,0.90
2019-05-25T16:41:03.054Z,0.90
2019-05-25T16:43:33.880Z,0.80
2019-05-25T16:46:05.362Z,0.90
2019-05-25T16:48:36.110Z,0.80
2019-05-25T16:51:06.989Z,1.00
2019-05-25T16:53:37.683Z,0.80
2019-05-25T16:56:08.520Z,1.53
2019-05-25T16:58:39.342Z,1.10
2019-05-25T17:01:10.075Z,1.00
2019-05-25T17:03:40.793Z,0.87
2019-05-25T17:06:11.606Z,1.33
2019-05-25T17:08:42.258Z,1.30
2019-05-25T17:11:12.919Z,1.00
2019-05-25T17:13:43.814Z,0.90
2019-05-25T17:16:14.628Z,1.00
2019-05-25T17:18:45.242Z,0.70
2019-05-25T17:21:15.952Z,0.90
2019-05-25T17:23:46.655Z,1.03
2019-05-25T17:26:17.371Z,0.90
2019-05-25T17:28:48.020Z,0.90
2019-05-25T17:31:18.879Z,0.88
2019-05-25T17:33:50.759Z,1.00
2019-05-25T17:36:21.701Z,0.80
2019-05-25T17:38:52.679Z,0.97
2019-05-25T17:41:23.553Z,0.87
2019-05-25T17:43:54.574Z,1.00
2019-05-25T17:46:25.233Z,1.03
2019-05-25T17:48:55.944Z,1.07
2019-05-25T17:51:26.626Z,1.00
2019-05-25T17:53:57.325Z,1.10
2019-05-25T17:56:28.066Z,1.00
2019-05-25T17:58:58.691Z,1.10
2019-05-25T18:01:29.511Z,1.03
2019-05-25T18:04:07.089Z,0.70
2019-05-25T18:06:32.722Z,1.07
2019-05-25T18:09:03.576Z,1.00
2019-05-25T18:11:34.249Z,1.20
2019-05-25T18:14:05.596Z,0.93
2019-05-25T18:16:36.309Z,0.73
2019-05-25T18:19:07.070Z,1.10
2019-05-25T18:21:37.727Z,0.90
2019-05-25T18:24:08.700Z,0.63
2019-05-25T18:26:39.494Z,0.97
2019-05-25T18:29:10.241Z,0.90
2019-05-25T18:31:41.024Z,1.37
2019-05-25T18:34:21.610Z,0.80
2019-05-25T18:36:44.256Z,0.95
2019-05-25T18:39:14.914Z,1.00
2019-05-25T18:41:45.614Z,0.90
2019-05-25T18:44:16.413Z,0.85
2019-05-25T18:46:47.190Z,0.83
2019-05-25T18:49:17.937Z,0.70
2019-05-25T18:51:48.641Z,1.00
2019-05-25T18:54:19.401Z,0.90
2019-05-25T18:56:50.927Z,1.23
2019-05-25T18:59:21.730Z,1.10
2019-05-25T19:01:52.474Z,0.87
2019-05-25T19:04:41.937Z,0.93
2019-05-25T19:06:55.652Z,0.93
2019-05-25T19:09:26.511Z,0.80
2019-05-25T19:11:57.255Z,1.03
2019-05-25T19:14:27.914Z,0.87
2019-05-25T19:16:58.673Z,1.30
2019-05-25T19:19:29.783Z,0.90
2019-05-25T19:22:00.511Z,0.70
2019-05-25T19:24:31.248Z,1.03
2019-05-25T19:27:02.163Z,1.00
2019-05-25T19:29:33.056Z,0.60
2019-05-25T19:32:03.909Z,1.10
2019-05-25T19:34:34.624Z,1.00
2019-05-25T19:37:05.413Z,1.10
2019-05-25T19:39:36.106Z,1.13
2019-05-25T19:42:06.818Z,1.27
2019-05-25T19:44:38.505Z,0.90
2019-05-25T19:47:09.168Z,1.20
2019-05-25T19:49:39.818Z,1.07
2019-05-25T19:52:10.659Z,1.00
2019-05-25T19:54:41.452Z,0.90
2019-05-25T19:57:12.303Z,1.10
2019-05-25T19:59:43.216Z,0.90
2019-05-25T20:02:13.979Z,0.90
2019-05-25T20:04:44.729Z,1.20
2019-05-25T20:07:15.576Z,1.07
2019-05-25T20:09:46.347Z,1.30
2019-05-25T20:12:17.218Z,1.10
2019-05-25T20:14:47.894Z,1.17
2019-05-25T20:17:18.646Z,1.17
2019-05-25T20:19:49.432Z,1.07
2019-05-25T20:22:20.571Z,0.78
2019-05-25T20:24:51.375Z,0.97
2019-05-25T20:27:22.063Z,0.90
2019-05-25T20:29:52.813Z,1.30
2019-05-25T20:32:24.559Z,0.80
2019-05-25T20:34:57.316Z,1.20
2019-05-25T20:37:28.428Z,1.03
2019-05-25T20:40:01.718Z,0.87
2019-05-25T20:42:36.290Z,1.07
2019-05-25T20:45:08.389Z,1.07
2019-05-25T20:47:39.235Z,1.30
2019-05-25T20:50:10.497Z,1.30
2019-05-25T20:52:41.174Z,0.83
2019-05-25T20:55:12.332Z,1.27
2019-05-25T20:57:43.056Z,1.17
2019-05-25T21:00:14.967Z,1.20
2019-05-25T21:03:01.981Z,1.40
2019-05-25T21:05:18.403Z,1.23
2019-05-25T21:07:49.086Z,1.10
2019-05-25T21:10:19.823Z,1.30
2019-05-25T21:12:50.484Z,1.00
2019-05-25T21:15:21.297Z,1.10
2019-05-25T21:17:52.051Z,1.30
2019-05-25T21:20:22.813Z,0.80
2019-05-25T21:22:53.490Z,1.00
2019-05-25T21:25:24.220Z,1.20
2019-05-25T21:27:54.864Z,1.20
2019-05-25T21:30:25.727Z,1.13
2019-05-25T21:32:56.575Z,1.30
2019-05-25T21:35:27.487Z,1.53
2019-05-25T21:37:58.220Z,1.00
2019-05-25T21:40:29.048Z,1.60
2019-05-25T21:42:59.820Z,1.20
2019-05-25T21:45:30.768Z,1.27
2019-05-25T21:48:01.536Z,1.47
2019-05-25T21:50:32.344Z,1.20
2019-05-25T21:53:03.121Z,1.55
2019-05-25T21:55:33.907Z,1.40
2019-05-25T21:58:04.888Z,1.40
2019-05-25T22:00:37.479Z,1.20
2019-05-25T22:03:09.392Z,1.32
2019-05-25T22:05:41.582Z,1.10
2019-05-25T22:08:12.425Z,1.50
2019-05-25T22:10:43.166Z,1.37
2019-05-25T22:13:27.391Z,1.22
2019-05-25T22:15:46.353Z,1.90
2019-05-25T22:18:17.082Z,1.30
2019-05-25T22:20:48.027Z,1.90
2019-05-25T22:23:18.774Z,1.10
2019-05-25T22:25:49.607Z,1.30
2019-05-25T22:28:20.235Z,1.20
2019-05-25T22:30:50.979Z,1.60
2019-05-25T22:33:21.723Z,1.47
2019-05-25T22:35:52.392Z,1.20
2019-05-25T22:38:23.064Z,1.50
2019-05-25T22:40:53.736Z,1.10
2019-05-25T22:43:24.480Z,1.73
2019-05-25T22:45:55.210Z,1.50
2019-05-25T22:48:25.956Z,1.40
2019-05-25T22:50:56.672Z,1.27
2019-05-25T22:53:27.303Z,1.27
2019-05-25T22:55:57.935Z,1.70
2019-05-25T22:58:28.595Z,1.30
2019-05-25T23:00:59.274Z,1.60
2019-05-25T23:03:29.960Z,2.03
2019-05-25T23:06:00.665Z,1.97
2019-05-25T23:08:31.428Z,1.50
2019-05-25T23:11:02.236Z,2.20
2019-05-25T23:13:32.977Z,1.70
2019-05-25T23:16:04.866Z,1.57
2019-05-25T23:18:35.553Z,1.90
2019-05-25T23:21:06.276Z,1.90
2019-05-25T23:23:37.034Z,1.90
2019-05-25T23:26:07.692Z,1.70
2019-05-25T23:28:38.495Z,1.60
2019-05-25T23:31:09.325Z,1.40
2019-05-25T23:33:40.054Z,1.43
2019-05-25T23:36:10.889Z,1.77
2019-05-25T23:38:42.491Z,1.77
2019-05-25T23:41:13.129Z,1.73
2019-05-25T23:43:43.824Z,1.90
2019-05-25T23:46:14.509Z,1.90
2019-05-25T23:48:45.196Z,1.83
2019-05-25T23:51:15.941Z,1.80
2019-05-25T23:53:46.616Z,1.77
2019-05-25T23:56:17.284Z,1.73
2019-05-25T23:58:47.963Z,1.80
